Tiempo atmosférico en la estación meteorológica de Puerto de Navacerrada, Madrid (1894 m.)



Fecha
DESCASC
Temp. máxima en grados centígrados (hora)
DESCASC
Temp. mínima en grados centígrados (hora)
DESCASC
Temp. media en grados centígrados
DESCASC
Racha de viento máxima en m/sg (hora)
DESCASC
Velocidad máxima media en intervalos de 10 minutos(hora)
DESCASC
Precipitaciones diarias en mm
DESCASC
Precipitaciones de 00:00 a 06:00 en mm
DESCASC
Precipitaciones de 06:00 a 12:00 en mm
DESCASC
Precipitaciones de 12:00 a 18:00 en mm
DESCASC
Precipitaciones de 18:00 a 24:00 en mm
DESCASC
10-07-2020 23.5 (15:00) 13 (06:00) 18.3 7.22 (12:40) 3.89 (23:59) 0 0 0 0 0
09-07-2020 26 (14:20) 12.6 (23:20) 19.3 16.67 (21:50) 8.33 (05:40) 0 0 0 0 0
08-07-2020 27 (16:00) 13.9 (09:00) 20.4 16.67 (17:50) 8.89 (16:50) 1.4 0 1 0 0.4
07-07-2020 28.5 (16:20) 17 (04:10) 22.8 9.44 (16:20) 4.72 (16:20) 0 0 0 0 0
06-07-2020 25.8 (16:30) 17 (00:00) 21.4 9.17 (15:20) 3.89 (16:50) 0 0 0 0 0
05-07-2020 26.1 (16:40) 15.8 (00:00) 21 8.89 (19:10) 3.89 (21:50) 0 0 0 0 0
04-07-2020 23.1 (17:20) 11.6 (00:00) 17.4 8.06 (17:10) 3.61 (22:10) 0 0 0 0 0
03-07-2020 21.2 (17:20) 8.1 (06:40) 14.7 8.06 (16:30) 3.89 (00:20) 0 0 0 0 0
02-07-2020 21.7 (15:00) 11 (00:00) 16.4 8.89 (21:30) 4.44 (05:20) 0 0 0 0 0
01-07-2020 24.2 (15:10) 14.8 (00:00) 19.5 10 (20:20) 4.44 (05:30) 0 0 0 0 0
30-06-2020 26.3 (15:10) 16.8 (00:00) 21.5 13.61 (19:10) 7.78 (18:40) 0 0 0 0 0
29-06-2020 25.9 (16:10) 12.8 (00:00) 19.3 9.17 (14:20) 5 (08:20) 0 0 0 0 0
28-06-2020 22.8 (17:40) 10.7 (00:00) 16.7 7.78 (17:00) 5 (07:50) 0 0 0 0 0
27-06-2020 20.4 (16:50) 8.7 (00:00) 14.5 8.06 (17:40) 4.17 (00:30) 0 0 0 0 0
26-06-2020 21.2 (18:10) 11.4 (00:00) 16.3 13.33 (13:50) 6.67 (13:40) 0 0 0 0 0
25-06-2020 23.8 (15:10) 14.5 (00:00) 19.1 13.33 (02:00) 7.78 (05:30) 0 0 0 0 0
24-06-2020 23.3 (17:10) 15.8 (00:00) 19.5 13.61 (02:50) 8.33 (02:50) 0.2 0 0.2 0 0
23-06-2020 26.1 (16:40) 15.7 (00:00) 20.9 12.5 (03:10) 6.39 (03:50) 0 0 0 0 0
22-06-2020 24.8 (15:20) 13.5 (00:00) 19.1 7.5 (15:40) 5.28 (23:30) 0 0 0 0 0
21-06-2020 22.3 (17:00) 10.7 (00:00) 16.5 8.61 (18:00) 4.44 (01:20) 0 0 0 0 0
20-06-2020 21.6 (18:30) 9.9 (00:00) 15.8 8.33 (19:10) 3.89 (19:10) 0 0 0 0 0
19-06-2020 19.1 (17:50) 7.5 (00:00) 13.3 8.61 (19:40) 4.17 (11:00) 0 0 0 0 0
18-06-2020 17.1 (15:50) 5.8 (00:00) 11.5 7.5 (10:20) 3.61 (19:10) 0 0 0 0 0
17-06-2020 14.1 (18:50) 3.8 (00:00) 9 10.83 (00:50) 5 (02:30) 0 0 0 0 0
16-06-2020 12.9 (16:50) 4.9 (00:00) 8.9 12.78 (20:50) 4.44 (18:50) 0 0 0 0 0
15-06-2020 15.3 (16:10) 5.7 (00:00) 10.5 8.33 (19:50) 3.89 (20:20) 0 0 0 0 0
14-06-2020 14.7 (18:00) 4.2 (00:00) 9.4 8.61 (18:20) 4.44 (09:50) 0 0 0 0 0
13-06-2020 12 (18:00) 1.9 (00:00) 6.9 10.83 (06:40) 5 (05:50) 0.8 0.8 0 0 0
12-06-2020 6.9 (17:00) 0.1 (00:00) 3.5 15.28 (18:50) 6.94 (12:50) 15.6 0 0 3.6 12
11-06-2020 13.4 (18:00) 3.4 (00:00) 8.4 13.89 (18:10) 5.83 (18:10) 1.6 0 0 0 1.6

Gráficas

Temp. máximas Temp. mínimas Temp. medias Precipitaciones Rachas de viento máximas Velocidades máximas media en intervalos de 10 minutos

Datos horarios

Fecha y hora oficial Temperatura (ºC) Velocidad del viento (km/h) Dirección del viento Racha (km/h) Dirección de racha Precipitación (mm) Presión (hPa) Tendencia (hPa) Humedad (%)
2020-07-10 23:00:00 17.3 3 Este 9 Nordeste 0 816.3 -- 52
2020-07-10 22:00:00 18.4 5 Oeste 9 Noroeste 0 815.9 -- 51
2020-07-10 21:00:00 19.1 5 Noroeste 10 Noroeste 0 815.8 -- 50
2020-07-10 20:00:00 20.4 6 Noroeste 15 Noroeste 0 815.8 -- 46
2020-07-10 19:00:00 22.6 8 Oeste 17 Oeste 0 815.5 -- 39
2020-07-10 18:00:00 22.3 7 Oeste 13 Oeste 0 815.6 -- 40
2020-07-10 17:00:00 21.2 5 Oeste 12 Sudeste 0 815.7 -- 44
2020-07-10 16:00:00 20.6 4 Sudoeste 17 Sudoeste 0 815.8 -- 44
2020-07-10 15:00:00 23.2 4 Sur 20 Sudeste 0 816 -- 38
2020-07-10 14:00:00 21.8 6 Sudeste 20 Sudoeste 0 816.2 0.7 43
2020-07-10 13:00:00 22.2 8 Sur 26 Sur 0 815.9 -- 42
2020-07-10 12:00:00 21.1 8 Sur 25 Sur 0 815.7 -- 46
2020-07-10 11:00:00 20.1 9 Sur 18 Sur 0 815.5 0.3 46
2020-07-10 10:00:00 17.7 4 Oeste 12 Sudoeste 0 815.4 -- 49
2020-07-10 09:00:00 16.5 2 Sudoeste 9 Noroeste 0 815.1 -- 51
2020-07-10 08:00:00 14.4 5 Oeste 8 Sudoeste 0 815.2 -- 57
2020-07-10 07:00:00 13 3 Norte 9 Norte 0 815.2 -- 60
2020-07-10 06:00:00 13.1 6 Norte 10 Norte 0 815.1 -- 61
2020-07-10 05:00:00 13.4 7 Noroeste 10 Noroeste 0 815.4 -- 59
2020-07-10 04:00:00 14 6 Norte 12 Oeste 0 815.6 -- 56
2020-07-10 03:00:00 14.3 9 Oeste 13 Oeste 0 815.9 -- 53
2020-07-10 02:00:00 13.9 4 Noroeste 15 Este 0 816.3 -- 52
2020-07-10 01:00:00 14.2 4 Nordeste 20 Sur 0 816.4 -- 51
2020-07-10 00:00:00 13.3 8 Sudeste 30 Este 0 816.6 -- 60
2020-07-09 23:00:00 12.7 11 Este 45 Nordeste 0 816.5 -- 77
2020-07-09 22:00:00 13.6 16 Este 60 Este 0 816.2 -- 74
2020-07-09 21:00:00 17 10 Este 27 Sur 0 816.5 -- 48
2020-07-09 20:00:00 18.2 9 Sur 21 Sudeste 0 816.2 -- 44
2020-07-09 19:00:00 17.8 8 Este 33 Nordeste 0 816.1 -- 49
2020-07-09 18:00:00 17 19 Este 38 Este 0 816.8 -- 56
2020-07-09 17:00:00 20.4 10 Sur 27 Sudeste 0 816.5 -- 39
2020-07-09 16:00:00 23.7 9 Sudeste 29 Sudeste 0 816.6 -- 33
2020-07-09 15:00:00 25.8 7 Sudeste 25 Sudeste 0 817.1 -- 27
2020-07-09 14:00:00 25.6 12 Sudeste 27 Sur 0 817.5 -- 35
2020-07-09 13:00:00 23.4 11 Sudeste 23 Sur 0 817.5 -- 37
2020-07-09 12:00:00 22 9 Sur 20 Sudeste 0 817.3 -- 44
2020-07-09 11:00:00 20.9 8 Sur 16 Sudeste 0 817.1 -- 48
2020-07-09 10:00:00 19.5 11 Sudeste 21 Sudeste 0 816.9 -- 56
2020-07-09 09:00:00 17.3 13 Sudeste 33 Este 0 816.4 -- 57
2020-07-09 08:00:00 14.3 19 Sudeste 43 Este 0 815.9 -- 65
2020-07-09 07:00:00 14.3 23 Sudeste 51 Sudeste 0 815.4 -- 62
2020-07-09 06:00:00 14.6 26 Sudeste 53 Sudeste 0 815.6 -- 63
2020-07-09 05:00:00 14.8 23 Sudeste 43 Sudeste 0 815.5 -- 56
2020-07-09 04:00:00 15.6 23 Sudeste 49 Sur 0 815.5 -- 53
2020-07-09 03:00:00 16 21 Sudeste 42 Sur 0 815.7 -- 52
2020-07-09 02:00:00 15.6 15 Sudeste 54 Este 0 816.1 -- 55
2020-07-09 01:00:00 16.1 26 Este 49 Este 0 816.1 -- 52
2020-07-09 00:00:00 14.7 14 Este 28 Este 0 816.6 -- 61
2020-07-08 23:00:00 15.2 5 Oeste 39 Este 0 817.1 -- 58
2020-07-08 22:00:00 16 15 Este 43 Este 0 815.7 -- 60
2020-07-08 21:00:00 16.5 12 Este 37 Sudeste 0.4 815.8 -- 67
2020-07-08 20:00:00 19.9 19 Este 55 Sudeste 0 814.5 -- 44
2020-07-08 19:00:00 20.9 20 Sudeste 52 Sudeste 0 814.8 -- 38
2020-07-08 18:00:00 22.4 13 Sudeste 60 Sur 0 814.6 -- 33
2020-07-08 17:00:00 25.2 18 Sudeste 56 Sudeste 0 815.2 -- 28
2020-07-08 16:00:00 26.9 17 Este 45 Sudeste 0 815.6 -- 28
2020-07-08 15:00:00 24.7 23 Este 51 Sudeste 0 815.9 -- 32
2020-07-08 14:00:00 22.5 14 Sudeste 41 Este 0 816.2 -- 29
2020-07-08 13:00:00 24.2 13 Este 34 Este 0 816.6 -- 32
2020-07-08 12:00:00 23.4 15 Sudeste 48 Este 0 816.5 -- 34
2020-07-08 11:00:00 21.4 21 Este 50 Este 0 816.2 -- 35
2020-07-08 10:00:00 18.6 26 Este 50 Este 0 815.7 -- 43
2020-07-08 09:00:00 14.2 22 Este 42 Este 0.8 815.6 -- 61
2020-07-08 08:00:00 17.8 21 Oeste 46 Noroeste 0.2 818 -- 54
2020-07-08 07:00:00 19.8 6 Este 42 Sudoeste 0 816.3 -- 29
2020-07-08 06:00:00 20.7 10 Sudoeste 22 Sudoeste 0 816.6 -- 26
2020-07-08 05:00:00 20.5 14 Sudoeste 26 Sudoeste 0 816.2 -- 26
2020-07-08 04:00:00 21.2 15 Sudoeste 40 Sudoeste 0 816.5 -- 25
2020-07-08 03:00:00 20.8 16 Sudoeste 27 Sudoeste 0 816.9 -- 23
2020-07-08 02:00:00 20.5 15 Oeste 24 Oeste 0 817.3 -- 24
2020-07-08 01:00:00 20.3 6 Noroeste 21 Noroeste 0 817.7 -- 29
2020-07-08 00:00:00 20.4 7 Noroeste 21 Noroeste 0 817.9 -- 28
2020-07-07 23:00:00 20.8 7 Noroeste 28 Oeste 0 818 -- 28
2020-07-07 22:00:00 21.8 12 Oeste 26 Oeste 0 817.4 -- 26
2020-07-07 21:00:00 23.7 8 Noroeste 29 Noroeste 0 817.3 -- 24
2020-07-07 20:00:00 25.9 11 Oeste 30 Noroeste 0 817.1 -0.4 21
2020-07-07 19:00:00 26.4 8 Norte 26 Sudoeste 0 817 -0.6 31
2020-07-07 18:00:00 27.7 9 Sudoeste 24 Sudoeste 0 817.2 -0.5 29
2020-07-07 17:00:00 28 8 Oeste 34 Sudoeste 0 817.5 -0.5 28
2020-07-07 16:00:00 27.9 11 Sudoeste 32 Sudoeste 0 817.6 -0.5 27
2020-07-07 15:00:00 27.6 10 Sudoeste 32 Sudoeste 0 817.7 -0.4 31
2020-07-07 14:00:00 26.4 9 Sudoeste 24 Oeste 0 818 0.2 34
2020-07-07 13:00:00 26 9 Sur 22 Sur 0 818.1 0.4 36
2020-07-07 12:00:00 26 13 Sur 23 Sur 0 818.1 0.5 41
2020-07-07 11:00:00 24.5 10 Sur 21 Sur 0 817.8 0.4 44
2020-07-07 10:00:00 22.1 5 Oeste 10 Oeste 0 817.7 0.3 45
2020-07-07 09:00:00 20.5 6 Sur 15 Sur 0 817.6 0.2 48
2020-07-07 08:00:00 18.7 9 Sur 18 Sur 0 817.4 -0.1 51
2020-07-07 07:00:00 17.3 3 Sudeste 10 Sudeste 0 817.4 -- 52
2020-07-07 06:00:00 17.5 4 Norte 11 Norte 0 817.4 -- 45
2020-07-07 05:00:00 17.1 6 Noroeste 8 Norte 0 817.5 -- 54
2020-07-07 04:00:00 17.1 6 Norte 14 Nordeste 0 817.8 -- 58
2020-07-07 03:00:00 17.4 10 Nordeste 13 Nordeste 0 818 -- 58
2020-07-07 02:00:00 17.5 10 Norte 12 Norte 0 818.4 -- 54
2020-07-07 01:00:00 17.8 6 Oeste 10 Noroeste 0 818.6 -- 56
2020-07-07 00:00:00 17.7 4 Noroeste 16 Norte 0 818.9 -- 58
2020-07-06 23:00:00 17.6 6 Noroeste 14 Noroeste 0 819 -- 59
2020-07-06 22:00:00 18.6 8 Noroeste 21 Noroeste 0 818.5 -- 57
2020-07-06 21:00:00 20.5 6 Noroeste 24 Noroeste 0 818.4 -- 53
2020-07-06 20:00:00 22.3 9 Noroeste 30 Norte 0 818.5 -- 48
2020-07-06 19:00:00 23.7 12 Noroeste 31 Norte 0 818.6 -- 43
2020-07-06 18:00:00 24.6 12 Norte 29 Noroeste 0 818.9 -- 41
2020-07-06 17:00:00 25.1 12 Noroeste 30 Noroeste 0 819 -- 39
2020-07-06 16:00:00 24.8 14 Noroeste 33 Noroeste 0 819.2 -- 40
2020-07-06 15:00:00 25.3 9 Noroeste 26 Norte 0 819.3 -- 40
2020-07-06 14:00:00 24.2 11 Noroeste 24 Noroeste 0 819.6 -- 39
2020-07-06 13:00:00 23.3 10 Noroeste 24 Noroeste 0 819.6 -- 40
2020-07-06 12:00:00 23.3 8 Norte 24 Noroeste 0 819.5 -- 45
2020-07-06 11:00:00 21.8 7 Noroeste 20 Noroeste 0 819.4 -- 50
2020-07-06 10:00:00 20.6 6 Noroeste 20 Norte 0 819.2 -- 49
2020-07-06 09:00:00 19.6 9 Norte 18 Nordeste 0 819.1 -- 49
2020-07-06 08:00:00 18.6 4 Nordeste 14 Norte 0 819 -- 47
2020-07-06 07:00:00 17.1 11 Nordeste 17 Nordeste 0 818.8 -- 46
2020-07-06 06:00:00 17.5 10 Nordeste 13 Nordeste 0 818.7 -- 42
2020-07-06 05:00:00 17.7 6 Norte 12 Norte 0 818.9 -- 40
2020-07-06 04:00:00 18 9 Norte 12 Norte 0 819.2 -- 40
2020-07-06 03:00:00 18.5 5 Noroeste 12 Noroeste 0 819.6 -- 38
2020-07-06 02:00:00 18.5 8 Norte 12 Norte 0 819.9 -- 37
2020-07-06 01:00:00 18.6 10 Norte 18 Norte 0 820.2 -- 36
2020-07-06 00:00:00 18.8 10 Norte 13 Norte 0 820.2 -- 35
2020-07-05 23:00:00 19.2 10 Noroeste 19 Norte 0 820.2 -- 32
2020-07-05 22:00:00 19.8 13 Norte 19 Norte 0 820 -- 29
2020-07-05 21:00:00 21.9 8 Noroeste 23 Norte 0 819.9 -- 26
2020-07-05 20:00:00 23.1 9 Norte 32 Noroeste 0 819.7 -- 24
2020-07-05 19:00:00 24.4 11 Noroeste 30 Noroeste 0 819.8 -- 23
2020-07-05 18:00:00 25 9 Noroeste 31 Noroeste 0 820.1 -- 22
2020-07-05 17:00:00 25.5 8 Noroeste 27 Noroeste 0 820.4 -- 23
2020-07-05 16:00:00 25.6 11 Noroeste 26 Norte 0 820.5 -- 21
2020-07-05 15:00:00 24.8 9 Noroeste 23 Noroeste 0 820.6 -- 21
2020-07-05 14:00:00 24.5 6 Noroeste 22 Norte 0 820.9 -- 25
2020-07-05 13:00:00 23.9 9 Oeste 21 Noroeste 0 821.2 -- 25
2020-07-05 12:00:00 22.8 6 Oeste 18 Sur 0 821.2 -- 24
2020-07-05 11:00:00 22.4 7 Sur 16 Sur 0 821.1 -- 28
2020-07-05 10:00:00 20.7 5 Sur 13 Sur 0 821.1 -- 27
2020-07-05 09:00:00 19.2 9 Sur 14 Sur 0 820.8 -- 27
2020-07-05 08:00:00 17.9 2 Sudoeste 16 Sur 0 820.5 -- 25
2020-07-05 07:00:00 16 0 Calma 14 Sudeste 0 820.5 -- 23
2020-07-05 06:00:00 16.2 2 Oeste 17 Sur 0 820.6 -- 23
2020-07-05 05:00:00 16.6 0 Calma 4 Oeste 0 820.7 -- 21
2020-07-05 04:00:00 16.9 3 Oeste 5 Oeste 0 820.9 -- 21
2020-07-05 03:00:00 16.9 5 Noroeste 6 Noroeste 0 821.3 -- 21
2020-07-05 02:00:00 17 4 Oeste 6 Noroeste 0 821.5 -- 22
2020-07-05 01:00:00 16.8 2 Noroeste 6 Oeste 0 821.6 -- 22
2020-07-05 00:00:00 17 4 Sudoeste 7 Sudoeste 0 821.6 -- 22
2020-07-04 23:00:00 17.1 4 Noroeste 18 Norte 0 821.4 -- 23
2020-07-04 22:00:00 17.4 13 Norte 18 Norte 0 821.1 -- 25
2020-07-04 21:00:00 19.5 9 Noroeste 21 Noroeste 0 820.9 -- 25
2020-07-04 20:00:00 20.9 8 Noroeste 21 Noroeste 0 820.8 -- 27
2020-07-04 19:00:00 22 7 Noroeste 23 Norte 0 820.7 -- 26
2020-07-04 18:00:00 22.6 8 Noroeste 29 Noroeste 0 820.9 -- 24
2020-07-04 17:00:00 22.6 9 Norte 25 Noroeste 0 820.9 -- 26
2020-07-04 16:00:00 22.5 9 Noroeste 25 Norte 0 821.1 -- 27
2020-07-04 15:00:00 21.3 10 Noroeste 25 Noroeste 0 821.2 -- 27
2020-07-04 14:00:00 20.7 8 Noroeste 25 Noroeste 0 821.4 -- 33
2020-07-04 13:00:00 19.9 5 Noroeste 18 Norte 0 821.4 -- 35
2020-07-04 12:00:00 18.4 7 Noroeste 19 Noroeste 0 821.2 -- 35
2020-07-04 11:00:00 17.1 6 Noroeste 11 Noroeste 0 820.7 -- 31
2020-07-04 10:00:00 16 5 Noroeste 12 Norte 0 820.4 -- 36
2020-07-04 09:00:00 15 4 Norte 10 Noroeste 0 820.3 -- 36
2020-07-04 08:00:00 14.1 8 Noroeste 16 Oeste 0 819.9 -- 33
2020-07-04 07:00:00 11.7 2 Nordeste 10 Norte 0 819.6 -- 47
2020-07-04 06:00:00 11.9 7 Norte 11 Norte 0 819.5 -- 47
2020-07-04 05:00:00 11.7 10 Norte 13 Norte 0 819.6 -- 48
2020-07-04 04:00:00 12.1 10 Norte 15 Norte 0 819.7 -- 46
2020-07-04 03:00:00 12.4 12 Norte 15 Norte 0 819.9 -- 45
2020-07-04 02:00:00 12.7 12 Norte 15 Noroeste 0 819.9 -- 45
2020-07-04 01:00:00 13.2 8 Noroeste 12 Noroeste 0 820 -- 46
2020-07-04 00:00:00 13.6 5 Noroeste 11 Norte 0 819.9 -- 45
2020-07-03 23:00:00 13.9 5 Oeste 14 Norte 0 819.6 -- 45
2020-07-03 22:00:00 14.9 12 Norte 21 Noroeste 0 819.1 -- 40
2020-07-03 21:00:00 16.9 6 Noroeste 22 Noroeste 0 819 -- 37
2020-07-03 20:00:00 18.3 11 Noroeste 25 Noroeste 0 818.8 -- 32
2020-07-03 19:00:00 20.1 7 Noroeste 28 Norte 0 818.6 -- 28
2020-07-03 18:00:00 20.4 12 Norte 26 Norte 0 818.5 -- 28
2020-07-03 17:00:00 20.9 7 Noroeste 29 Norte 0 818.4 -- 33
2020-07-03 16:00:00 19.8 9 Noroeste 22 Noroeste 0 818.4 -- 40
2020-07-03 15:00:00 19.8 7 Noroeste 20 Noroeste 0 818.3 -- 43
2020-07-03 14:00:00 18.3 9 Noroeste 22 Noroeste 0 818.3 -- 47
2020-07-03 13:00:00 17.2 8 Noroeste 19 Noroeste 0 818.1 -- 45
2020-07-03 12:00:00 17 7 Noroeste 15 Noroeste 0 817.7 -- 43
2020-07-03 11:00:00 16.8 2 Noroeste 8 Este 0 817.3 -- 42
2020-07-03 10:00:00 14.6 2 Norte 7 Nordeste 0 817 -- 50
2020-07-03 09:00:00 12.3 3 Norte 10 Norte 0 816.8 -- 53
2020-07-03 08:00:00 11.4 3 Norte 9 Nordeste 0 816.4 -- 57
2020-07-03 07:00:00 8.3 6 Nordeste 10 Norte 0 816.1 -- 69
2020-07-03 06:00:00 8.7 8 Norte 10 Norte 0 816 -- 71
2020-07-03 05:00:00 9.2 5 Norte 8 Norte 0 815.9 -- 69
2020-07-03 04:00:00 9.3 5 Nordeste 11 Noroeste 0 816.1 -- 66
2020-07-03 03:00:00 9.7 9 Noroeste 14 Noroeste 0 816.3 -- 63
2020-07-03 02:00:00 10.2 8 Noroeste 17 Norte 0 816.5 -- 60
2020-07-03 01:00:00 10.2 13 Nordeste 24 Norte 0 816.8 -- 59
2020-07-03 00:00:00 11 13 Norte 28 Noroeste 0 816.7 -- 56
2020-07-02 23:00:00 12.4 12 Noroeste 32 Noroeste 0 816.3 -- 51
2020-07-02 22:00:00 13.8 10 Noroeste 32 Noroeste 0 815.9 -- 51
2020-07-02 21:00:00 15 8 Noroeste 30 Norte 0 815.7 -- 50
2020-07-02 20:00:00 17.4 11 Norte 24 Norte 0 815.5 -- 50
2020-07-02 19:00:00 18.1 10 Noroeste 30 Noroeste 0 815.5 -- 49
2020-07-02 18:00:00 20.6 11 Noroeste 31 Noroeste 0 815.3 -- 41
2020-07-02 17:00:00 20.6 11 Noroeste 31 Noroeste 0 815.4 -- 43
2020-07-02 16:00:00 20.1 10 Noroeste 28 Oeste 0 815.6 -- 47
2020-07-02 15:00:00 21.7 10 Oeste 28 Oeste 0 815.6 -- 37
2020-07-02 14:00:00 20.7 11 Oeste 32 Oeste 0 815.8 -- 32
2020-07-02 13:00:00 18.7 5 Oeste 22 Noroeste 0 815.6 -- 49
2020-07-02 12:00:00 17.9 8 Noroeste 18 Noroeste 0 815.5 -- 61
2020-07-02 11:00:00 16.9 4 Norte 10 Noroeste 0 815.1 -- 63
2020-07-02 10:00:00 17.7 4 Este 10 Nordeste 0 815 -- 61
2020-07-02 09:00:00 16.6 2 Nordeste 17 Oeste 0 814.5 -- 62
2020-07-02 08:00:00 14.2 8 Sudoeste 23 Oeste 0 814.3 -- 55
2020-07-02 07:00:00 11.7 14 Oeste 27 Oeste 0 814.1 -- 71
2020-07-02 06:00:00 11.8 8 Oeste 26 Sudoeste 0 814.2 -- 74
2020-07-02 05:00:00 12.4 11 Oeste 21 Oeste 0 814.2 -- 67
2020-07-02 04:00:00 12.1 5 Oeste 13 Oeste 0 814.6 -- 76
2020-07-02 03:00:00 12.3 9 Noroeste 17 Noroeste 0 815.2 -- 75
2020-07-02 02:00:00 13.1 8 Noroeste 18 Noroeste 0 815.5 -- 69
2020-07-02 01:00:00 14.4 7 Noroeste 19 Noroeste 0 815.6 -- 58
2020-07-02 00:00:00 15.2 8 Noroeste 28 Noroeste 0 815.7 -- 52
2020-07-01 23:00:00 16 11 Norte 29 Noroeste 0 815.6 -- 45
2020-07-01 22:00:00 17.3 8 Noroeste 26 Noroeste 0 815.1 -- 43
2020-07-01 21:00:00 19 10 Noroeste 36 Noroeste 0 814.9 -- 40
2020-07-01 20:00:00 21.3 9 Noroeste 28 Noroeste 0 814.6 -- 34
2020-07-01 19:00:00 22.2 12 Noroeste 34 Noroeste 0 814.7 -- 33
2020-07-01 18:00:00 22.1 12 Noroeste 33 Oeste 0 814.9 -- 33
2020-07-01 17:00:00 23.5 12 Noroeste 32 Oeste 0 814.9 -- 34
2020-07-01 16:00:00 23.3 14 Noroeste 32 Oeste 0 815 -- 37
2020-07-01 15:00:00 23.5 11 Noroeste 26 Noroeste 0 815 -- 36
2020-07-01 14:00:00 22.8 6 Sur 18 Sudoeste 0 814.8 -- 43
2020-07-01 13:00:00 21.4 7 Noroeste 21 Noroeste 0 814.7 -- 49
2020-07-01 12:00:00 21.2 7 Oeste 22 Oeste 0 814.5 -- 41
2020-07-01 11:00:00 20.6 8 Oeste 21 Sudoeste 0 814.2 -- 42
2020-07-01 10:00:00 19.5 5 Oeste 21 Oeste 0 814.1 -- 49
2020-07-01 09:00:00 17.7 4 Noroeste 17 Nordeste 0 813.7 -- 59
2020-07-01 08:00:00 16.3 6 Nordeste 14 Nordeste 0 813.5 -- 65
2020-07-01 07:00:00 15.1 10 Noroeste 22 Sudoeste 0 813.2 -- 61
2020-07-01 06:00:00 15.9 15 Sudoeste 28 Oeste 0 813 -- 53
2020-07-01 05:00:00 15.7 14 Oeste 25 Oeste 0 813.1 -- 55
2020-07-01 04:00:00 15.8 12 Oeste 19 Oeste 0 813.3 -- 55
2020-07-01 03:00:00 15.6 14 Oeste 27 Oeste 0 813.6 -- 59
2020-07-01 02:00:00 16.7 13 Oeste 32 Oeste 0 813.9 -- 51
2020-07-01 01:00:00 17.3 13 Oeste 27 Oeste 0 814.2 -- 48
2020-07-01 00:00:00 18.2 6 Oeste 19 Noroeste 0 814.4 -- 45
2020-06-30 23:00:00 18.8 8 Oeste 33 Oeste 0 814.3 -- 45
2020-06-30 22:00:00 20 20 Oeste 32 Oeste 0 813.8 -- 41
2020-06-30 21:00:00 21.7 12 Oeste 30 Oeste 0 813.6 -- 35
2020-06-30 20:00:00 23.3 17 Oeste 49 Sudoeste 0 813.4 -- 29
2020-06-30 19:00:00 24.6 26 Sudoeste 49 Sudoeste 0 813.2 -- 28
2020-06-30 18:00:00 25.3 24 Sudoeste 47 Sudoeste 0 813.6 -- 30
2020-06-30 17:00:00 25.8 19 Sudoeste 45 Sudoeste 0 813.9 -- 29
2020-06-30 16:00:00 25.6 21 Sudoeste 45 Sudoeste 0 814.2 -- 30
2020-06-30 15:00:00 25.5 10 Sudoeste 30 Sudoeste 0 814.7 -- 36
2020-06-30 14:00:00 24 13 Sudoeste 28 Oeste 0 814.9 -- 41
2020-06-30 13:00:00 24.2 12 Sur 28 Sur 0 815.1 -- 40
2020-06-30 12:00:00 24.4 13 Sur 24 Sur 0 815 -- 38
2020-06-30 11:00:00 23.2 10 Sur 21 Sudoeste 0 815 -- 40
2020-06-30 10:00:00 22.2 6 Sur 18 Sudeste 0 815.1 -- 40
2020-06-30 09:00:00 20.6 9 Sudeste 17 Sudeste 0 815.1 -- 45
2020-06-30 08:00:00 18.7 11 Sur 18 Sur 0 814.9 -- 48
2020-06-30 07:00:00 17.2 11 Sur 19 Sudoeste 0 814.8 -- 48
2020-06-30 06:00:00 17 10 Sudeste 15 Sudeste 0 814.7 -- 49
2020-06-30 05:00:00 17.4 4 Noroeste 9 Oeste 0 814.8 -- 47
2020-06-30 04:00:00 17.5 7 Noroeste 8 Noroeste 0 815 -- 46
2020-06-30 03:00:00 17.5 3 Noroeste 7 Oeste 0 815.4 -- 47
2020-06-30 02:00:00 17.5 6 Oeste 8 Oeste 0 815.9 -- 46
2020-06-30 01:00:00 17.5 5 Oeste 8 Oeste 0 816.2 -- 48
2020-06-30 00:00:00 17.8 4 Noroeste 9 Noroeste 0 816.4 -- 48
2020-06-29 23:00:00 17.9 6 Noroeste 19 Norte 0 816.5 -- 51
2020-06-29 22:00:00 18.7 10 Norte 21 Norte 0 816.1 -- 50
2020-06-29 21:00:00 20.8 10 Norte 18 Noroeste 0 816.1 -- 47
2020-06-29 20:00:00 22.1 8 Norte 14 Noroeste 0 816.2 -- 43
2020-06-29 19:00:00 23.8 7 Noroeste 17 Noroeste 0 816.2 -- 41
2020-06-29 18:00:00 23.4 8 Noroeste 20 Noroeste 0 816.5 -- 40
2020-06-29 17:00:00 23.6 4 Norte 28 Sudoeste 0 816.9 -- 43
2020-06-29 16:00:00 25.6 12 Sur 28 Sudoeste 0 817 -- 32
2020-06-29 15:00:00 24.2 16 Sudoeste 33 Sudoeste 0 817.2 -- 39
2020-06-29 14:00:00 23.4 9 Sudoeste 26 Sudoeste 0 817.6 -- 45
2020-06-29 13:00:00 22 10 Sudoeste 25 Sudoeste 0 817.7 -- 49
2020-06-29 12:00:00 21.3 12 Sur 32 Sur 0 817.7 -- 51
2020-06-29 11:00:00 19.9 14 Sur 29 Sudoeste 0 817.6 -- 55
2020-06-29 10:00:00 18 16 Sur 27 Sur 0 817.4 -- 61
2020-06-29 09:00:00 16.7 17 Sudoeste 26 Sudoeste 0 817.3 -- 65
2020-06-29 08:00:00 15.3 18 Sudoeste 25 Sudoeste 0 817 -- 68
2020-06-29 07:00:00 14.2 12 Sur 22 Sur 0 816.8 -- 70
2020-06-29 06:00:00 14.5 14 Sudoeste 20 Sur 0 816.7 -- 67
2020-06-29 05:00:00 12.8 2 Sur 5 Sudoeste 0 816.9 -- 87
2020-06-29 04:00:00 12.9 3 Noroeste 7 Noroeste 0 817.1 -- 87
2020-06-29 03:00:00 12.8 7 Noroeste 14 Norte 0 817.7 -- 86
2020-06-29 02:00:00 13.3 10 Norte 19 Norte 0 818.1 -- 81
2020-06-29 01:00:00 14.6 11 Noroeste 21 Noroeste 0 818.5 -- 72
2020-06-29 00:00:00 15.7 10 Noroeste 23 Noroeste 0 818.4 -- 60
2020-06-28 23:00:00 16.1 12 Norte 17 Noroeste 0 818.2 -- 60
2020-06-28 22:00:00 17.2 7 Noroeste 19 Noroeste 0 817.8 -- 55
2020-06-28 21:00:00 19.2 8 Noroeste 21 Norte 0 817.8 -- 49
2020-06-28 20:00:00 20.4 6 Noroeste 23 Noroeste 0 817.7 -- 47
2020-06-28 19:00:00 21 9 Norte 23 Noroeste 0 817.6 -- 46
2020-06-28 18:00:00 22.8 4 Oeste 19 Noroeste 0 817.9 -- 47
2020-06-28 17:00:00 21.9 9 Noroeste 28 Noroeste 0 818 -- 51
2020-06-28 16:00:00 20.9 5 Oeste 21 Noroeste 0 818.1 -0.1 59
2020-06-28 15:00:00 19.6 5 Norte 21 Noroeste 0 818.1 -- 66
2020-06-28 14:00:00 18.9 6 Noroeste 17 Norte 0 818.2 -- 73
2020-06-28 13:00:00 19.4 6 Oeste 19 Noroeste 0 818.2 -- 63
2020-06-28 12:00:00 20.5 8 Sur 22 Sudeste 0 818 -- 55
2020-06-28 11:00:00 18.8 9 Sur 23 Sur 0 817.8 -- 61
2020-06-28 10:00:00 16.8 12 Sur 24 Sur 0 817.7 -- 68
2020-06-28 09:00:00 15.4 15 Sur 25 Sur 0 817.3 -- 71
2020-06-28 08:00:00 13.6 15 Sur 26 Sudoeste 0 817 -- 77
2020-06-28 07:00:00 11.6 14 Sur 20 Sur 0 816.8 -- 87
2020-06-28 06:00:00 10.9 0 Calma 8 Oeste 0 816.8 -- 94
2020-06-28 05:00:00 10.9 7 Noroeste 9 Noroeste 0 816.8 -- 93
2020-06-28 04:00:00 11 7 Noroeste 10 Noroeste 0 817.2 -- 93
2020-06-28 03:00:00 11.2 8 Noroeste 17 Norte 0 817.4 -- 90
2020-06-28 02:00:00 11.5 9 Noroeste 15 Noroeste 0 817.7 -- 86
2020-06-28 01:00:00 11.9 8 Noroeste 15 Norte 0 817.7 -- 83
2020-06-28 00:00:00 12.5 11 Norte 17 Norte 0 817.6 -- 82
2020-06-27 23:00:00 13.5 11 Norte 21 Noroeste 0 817.4 -- 76
2020-06-27 22:00:00 14.8 8 Noroeste 23 Noroeste 0 816.8 -- 67
2020-06-27 21:00:00 16.8 10 Noroeste 24 Noroeste 0 816.7 -- 57
2020-06-27 20:00:00 18.3 6 Noroeste 28 Noroeste 0 816.6 -- 53
2020-06-27 19:00:00 19.8 8 Norte 24 Noroeste 0 816.5 -- 48
2020-06-27 18:00:00 19.7 13 Noroeste 29 Noroeste 0 816.6 -- 48
2020-06-27 17:00:00 19.6 12 Norte 26 Noroeste 0 816.5 -- 49
2020-06-27 16:00:00 19.1 9 Norte 25 Noroeste 0 816.5 -- 55
2020-06-27 15:00:00 19.4 8 Noroeste 27 Noroeste 0 816.4 -- 53
2020-06-27 14:00:00 19.3 8 Noroeste 20 Noroeste 0 816.4 -- 55
2020-06-27 13:00:00 18.2 8 Noroeste 23 Oeste 0 816.3 -- 63
2020-06-27 12:00:00 17.3 3 Norte 11 Noroeste 0 816.1 -- 64
2020-06-27 11:00:00 16.8 3 Sudoeste 9 Sudoeste 0 815.7 -- 59
2020-06-27 10:00:00 16.2 0 Calma 14 Sur 0 815.5 -- 64
2020-06-27 09:00:00 14 6 Sur 12 Sur 0 815.1 -- 63
2020-06-27 08:00:00 12 4 Sur 8 Sur 0 815 -- 68
2020-06-27 07:00:00 9 3 Noroeste 8 Nordeste 0 814.6 -- 93
2020-06-27 06:00:00 9.2 3 Nordeste 11 Noroeste 0 814.6 -- 94
2020-06-27 05:00:00 9.2 6 Norte 15 Norte 0 814.8 -- 93
2020-06-27 04:00:00 8.7 8 Nordeste 17 Norte 0 814.6 -- 92
2020-06-27 03:00:00 9.3 7 Nordeste 21 Noroeste 0 814.7 -- 84
2020-06-27 02:00:00 10.2 11 Norte 22 Norte 0 815 -- 73
2020-06-27 01:00:00 11.1 10 Norte 24 Norte 0 815 -- 61
2020-06-27 00:00:00 11.4 11 Noroeste 27 Norte 0 815 -- 58
2020-06-26 23:00:00 11.8 13 Norte 27 Noroeste 0 814.9 -- 53
2020-06-26 22:00:00 12.9 12 Norte 30 Norte 0 814.2 -- 50
2020-06-26 21:00:00 15.4 13 Norte 28 Norte 0 814 -- 47
2020-06-26 20:00:00 16.9 7 Noroeste 22 Noroeste 0 813.7 -- 48
2020-06-26 19:00:00 18.8 7 Noroeste 26 Oeste 0 813.6 -- 46
2020-06-26 18:00:00 21.1 5 Sur 28 Sur 0 813.6 -- 27
2020-06-26 17:00:00 20.4 13 Sudoeste 33 Sudoeste 0 813.8 -- 29
2020-06-26 16:00:00 19 14 Sudoeste 38 Sudoeste 0 814.1 -- 32
2020-06-26 15:00:00 18.9 23 Sudoeste 45 Sudoeste 0 814 -- 39
2020-06-26 14:00:00 17.8 17 Sur 48 Sudoeste 0 813.9 -- 41
2020-06-26 13:00:00 18.4 15 Sudoeste 41 Sudoeste 0 814 -- 44
2020-06-26 12:00:00 17.3 15 Sudoeste 37 Sur 0 814.1 -- 58
2020-06-26 11:00:00 14.8 15 Sur 33 Sudoeste 0 814 -- 68
2020-06-26 10:00:00 15.9 16 Sudoeste 32 Sur 0 813.8 -- 57
2020-06-26 09:00:00 14.8 13 Sudoeste 26 Sudoeste 0 813.8 -- 62
2020-06-26 08:00:00 13.9 16 Sudoeste 28 Sur 0 813.7 -- 69
2020-06-26 07:00:00 12.9 18 Sur 29 Sur 0 813.6 -- 76
2020-06-26 06:00:00 13 13 Sur 18 Sur 0 813.6 -- 75
2020-06-26 05:00:00 13.8 4 Oeste 8 Oeste 0 813.8 -- 65
2020-06-26 04:00:00 14.2 4 Este 12 Este 0 814 -- 64
2020-06-26 03:00:00 14.4 10 Este 15 Este 0 814.3 -- 63
2020-06-26 02:00:00 14.9 9 Este 14 Este 0 814.8 -- 63
2020-06-26 01:00:00 16 3 Norte 15 Oeste 0 815 -- 58
2020-06-26 00:00:00 16.1 12 Oeste 18 Oeste 0 815 -- 52
2020-06-25 23:00:00 16.2 13 Oeste 31 Oeste 0 815.1 -- 53
2020-06-25 22:00:00 17.2 17 Oeste 33 Oeste 0 814.7 -- 51
2020-06-25 21:00:00 18.3 7 Sudoeste 20 Oeste 0 814.5 -- 52
2020-06-25 20:00:00 20.3 8 Sudoeste 27 Sur 0 814.4 -- 50
2020-06-25 19:00:00 20.4 10 Sudoeste 25 Sudoeste 0 814.4 -- 50
2020-06-25 18:00:00 16.7 7 Noroeste 30 Sudoeste 0 815.1 -- 66
2020-06-25 17:00:00 20.2 22 Sudoeste 40 Sudoeste 0 814.7 -- 45
2020-06-25 16:00:00 22.8 26 Sudoeste 45 Sur 0 815 -- 40
2020-06-25 15:00:00 23.5 16 Sur 35 Sur 0 815.2 -- 44
2020-06-25 14:00:00 23.3 8 Sur 26 Sur 0 816 -- 42
2020-06-25 13:00:00 23.3 12 Sur 23 Sur 0 815.9 -- 50
2020-06-25 12:00:00 21 9 Sudoeste 19 Sur 0 815.9 -- 48
2020-06-25 11:00:00 20.9 12 Sur 28 Sur 0 815.7 -- 52
2020-06-25 10:00:00 17.8 17 Sudeste 33 Sudeste 0 815.3 -- 56
2020-06-25 09:00:00 16.9 19 Sudeste 33 Sudeste 0 815.1 -- 58
2020-06-25 08:00:00 16.4 14 Sudeste 37 Sudeste 0 814.9 -- 49
2020-06-25 07:00:00 15.6 27 Sudeste 45 Sudeste 0 815 -- 53
2020-06-25 06:00:00 14.7 19 Sudeste 45 Sudeste 0 815.2 -- 56
2020-06-25 05:00:00 14.8 21 Sudeste 44 Sudeste 0 815.3 -- 60
2020-06-25 04:00:00 15.3 20 Sudeste 38 Sudeste 0 815.8 -- 58
2020-06-25 03:00:00 16.2 17 Sudeste 44 Sudeste 0 816.4 -- 52
2020-06-25 02:00:00 16.5 22 Sudeste 48 Este 0 816.6 -- 48
2020-06-25 01:00:00 17.1 19 Sudeste 34 Este 0 817.1 -- 47
2020-06-25 00:00:00 17.9 17 Sudeste 30 Sudeste 0 817.4 -- 42
2020-06-24 23:00:00 18 18 Sudeste 27 Sudeste 0 817.5 -- 42
2020-06-24 22:00:00 17.4 13 Sudeste 28 Sur 0 817.2 -- 45
2020-06-24 21:00:00 17.7 14 Sudeste 22 Sudeste 0 817 -- 47
2020-06-24 20:00:00 19.7 9 Sudeste 21 Sudeste 0 816.8 -- 41
2020-06-24 19:00:00 21.1 9 Sur 27 Sur 0 816.9 -- 38
2020-06-24 18:00:00 20.7 14 Sur 35 Sur 0 817.1 -- 36
2020-06-24 17:00:00 23.1 11 Este 29 Este 0 817.3 -- 39
2020-06-24 16:00:00 21.6 18 Sur 39 Sur 0 817.3 -- 43
2020-06-24 15:00:00 22.4 8 Sur 32 Nordeste 0 817.5 -- 43
2020-06-24 14:00:00 18.6 9 Este 32 Este 0 817.1 -- 52
2020-06-24 13:00:00 16.6 18 Sudeste 44 Sudeste 0 817.4 -- 49
2020-06-24 12:00:00 16.1 12 Este 23 Este 0.2 817.6 -- 68
2020-06-24 11:00:00 17.7 10 Norte 15 Norte 0 817.3 -- 41
2020-06-24 10:00:00 17.1 10 Este 23 Oeste 0 816.9 -- 49
2020-06-24 09:00:00 17.4 9 Sudoeste 16 Noroeste 0 817.6 -- 57
2020-06-24 08:00:00 17.1 6 Norte 40 Sudeste 0 816.9 -- 51
2020-06-24 07:00:00 17.4 24 Sudeste 36 Sudeste 0 816.3 -- 41
2020-06-24 06:00:00 18.2 19 Sudeste 36 Sur 0 816 -- 39
2020-06-24 05:00:00 17.6 19 Sudeste 33 Este 0 816.3 -- 42
2020-06-24 04:00:00 16.9 23 Este 47 Este 0 816.4 -- 53
2020-06-24 03:00:00 17.2 27 Este 49 Este 0 816.7 -- 56
2020-06-24 02:00:00 18.1 28 Este 49 Este 0 816.8 -- 40
2020-06-24 01:00:00 18.9 11 Sudoeste 17 Sur 0 817.3 -- 37
2020-06-24 00:00:00 19.4 11 Sudoeste 19 Sudoeste 0 817.3 -- 36
2020-06-23 23:00:00 18.7 8 Sudoeste 13 Sur 0 817.6 -- 36
2020-06-23 22:00:00 17.8 9 Noroeste 38 Norte 0 817.3 -- 41
2020-06-23 21:00:00 21 11 Sudoeste 22 Sudoeste 0 816.8 -- 33
2020-06-23 20:00:00 23.5 9 Sudoeste 23 Sur 0 816.6 -- 30
2020-06-23 19:00:00 25.1 10 Sudoeste 31 Sudoeste 0 816.5 -- 28
2020-06-23 18:00:00 25.4 16 Sudoeste 31 Sudoeste 0 816.8 -- 29
2020-06-23 17:00:00 25.3 13 Sudoeste 32 Sudoeste 0 817.1 -- 29
2020-06-23 16:00:00 25.3 13 Sudoeste 35 Sudoeste 0 817.3 -- 31
2020-06-23 15:00:00 25.2 10 Sudoeste 33 Sur 0 817.7 -- 32
2020-06-23 14:00:00 24.1 15 Sudoeste 30 Sudoeste 0 817.8 -- 37
2020-06-23 13:00:00 23.7 13 Sudoeste 26 Sudoeste 0 818 -- 32
2020-06-23 12:00:00 23.6 10 Sur 23 Sur 0 818 -- 33
2020-06-23 11:00:00 22.5 10 Sur 19 Sur 0 818 -- 37
2020-06-23 10:00:00 21.5 13 Sur 24 Sur 0 818 -- 39
2020-06-23 09:00:00 20 14 Sur 21 Sur 0 818 -- 41
2020-06-23 08:00:00 18.1 14 Sur 22 Sur 0 817.9 -- 49
2020-06-23 07:00:00 16.3 15 Sur 31 Sudeste 0 817.8 -- 50
2020-06-23 06:00:00 16.4 18 Sudeste 32 Sudeste 0 817.6 -- 50
2020-06-23 05:00:00 16.3 13 Sudeste 31 Sudeste 0 817.8 -- 49
2020-06-23 04:00:00 16.3 21 Este 45 Este 0 818.1 -- 50
2020-06-23 03:00:00 15.8 18 Este 39 Este 0 818.4 -- 48
2020-06-23 02:00:00 16.4 15 Este 24 Este 0 818.7 -- 44
2020-06-23 01:00:00 17.1 16 Este 27 Este 0 818.8 -- 43
2020-06-23 00:00:00 17.6 18 Este 27 Este 0 819.1 -- 42
2020-06-22 23:00:00 17.9 13 Sudeste 22 Sudeste 0 819.1 -- 44
2020-06-22 22:00:00 19.1 5 Sur 9 Sudeste 0 818.9 -- 40
2020-06-22 21:00:00 20.1 5 Sur 9 Sudoeste 0 818.8 -- 41
2020-06-22 20:00:00 20.6 5 Sudoeste 12 Sudoeste 0 818.8 -- 40
2020-06-22 19:00:00 22 5 Sur 14 Sur 0 819 -- 37
2020-06-22 18:00:00 21.7 9 Sur 24 Sudeste 0 819.4 -- 36
2020-06-22 17:00:00 23.1 4 Sur 24 Sur 0 819.9 -- 39
2020-06-22 16:00:00 23.6 10 Sur 27 Sudoeste 0 820.4 -- 35
2020-06-22 15:00:00 24.4 12 Sur 22 Sudoeste 0 820.9 -- 35
2020-06-22 14:00:00 23.8 7 Sudeste 22 Sudeste 0 821.3 -- 36
2020-06-22 13:00:00 23.5 9 Sudeste 25 Sudeste 0 821.4 -- 39
2020-06-22 12:00:00 22 8 Sur 21 Sur 0 821.3 -- 43
2020-06-22 11:00:00 21.4 5 Sudeste 17 Sudeste 0 821.2 -- 42
2020-06-22 10:00:00 20.1 8 Este 21 Nordeste 0 821.4 -- 39
2020-06-22 09:00:00 18.9 7 Este 18 Este 0 821.3 -- 43
2020-06-22 08:00:00 16.1 10 Este 16 Nordeste 0 821.3 -- 42
2020-06-22 07:00:00 13.5 8 Nordeste 13 Nordeste 0 821.1 -- 43
2020-06-22 06:00:00 14.1 6 Norte 13 Norte 0 821.1 -- 40
2020-06-22 05:00:00 14.1 5 Noroeste 13 Norte 0 821.4 -- 40
2020-06-22 04:00:00 14.4 6 Norte 13 Norte 0 821.5 -- 39
2020-06-22 03:00:00 14.5 4 Noroeste 11 Norte 0 821.8 -- 38
2020-06-22 02:00:00 14.7 6 Noroeste 10 Oeste 0 822.1 -- 37
2020-06-22 01:00:00 15 4 Noroeste 17 Norte 0 822.3 -- 36
2020-06-22 00:00:00 15 10 Norte 18 Norte 0 822.4 -- 35
2020-06-21 23:00:00 15.4 13 Norte 20 Norte 0 822.3 -- 36
2020-06-21 22:00:00 16.4 11 Norte 20 Norte 0 821.8 -- 30
2020-06-21 21:00:00 18 7 Norte 23 Noroeste 0 821.7 -- 33
2020-06-21 20:00:00 19.5 7 Norte 26 Noroeste 0 821.4 -- 33
2020-06-21 19:00:00 21.1 9 Noroeste 27 Norte 0 821.4 -- 33
2020-06-21 18:00:00 21.8 6 Noroeste 31 Noroeste 0 821.7 -- 34
2020-06-21 17:00:00 22 9 Norte 26 Nordeste 0 821.8 -- 35
2020-06-21 16:00:00 21.8 6 Noroeste 27 Norte 0 822 -- 38
2020-06-21 15:00:00 20.9 10 Noroeste 26 Noroeste 0 822 -- 45
2020-06-21 14:00:00 20.3 8 Noroeste 23 Noroeste 0 822.1 -- 47
2020-06-21 13:00:00 19.5 6 Noroeste 19 Oeste 0 821.9 -- 48
2020-06-21 12:00:00 18.8 6 Noroeste 15 Noroeste 0 821.7 -- 44
2020-06-21 11:00:00 18.9 5 Norte 11 Sur 0 821.5 -- 44
2020-06-21 10:00:00 18 6 Sur 13 Sur 0 821.3 -- 45
2020-06-21 09:00:00 15.8 4 Este 10 Oeste 0 821.1 -- 46
2020-06-21 08:00:00 14.4 8 Oeste 19 Oeste 0 820.7 -- 47
2020-06-21 07:00:00 12.1 11 Oeste 23 Sudoeste 0 820.3 -- 58
2020-06-21 06:00:00 10.8 4 Oeste 9 Noroeste 0 820.4 -- 55
2020-06-21 05:00:00 10.8 6 Noroeste 12 Noroeste 0 820.6 -- 56
2020-06-21 04:00:00 10.9 9 Norte 14 Norte 0 820.7 -- 59
2020-06-21 03:00:00 11.7 9 Norte 18 Norte 0 821 -- 57
2020-06-21 02:00:00 12.3 11 Norte 21 Norte 0 821.3 -- 56
2020-06-21 01:00:00 13.3 15 Norte 23 Norte 0 821.5 -- 51
2020-06-21 00:00:00 13.6 12 Norte 20 Norte 0 821.3 -- 50
2020-06-20 23:00:00 14.4 8 Norte 18 Noroeste 0 820.9 -- 49
2020-06-20 22:00:00 15.6 9 Norte 24 Noroeste 0 820.4 -- 46
2020-06-20 21:00:00 17.8 10 Noroeste 24 Norte 0 820.1 -- 40
2020-06-20 20:00:00 19.9 10 Oeste 30 Noroeste 0 819.9 -- 35
2020-06-20 19:00:00 20 8 Noroeste 28 Oeste 0 819.6 -- 35
2020-06-20 18:00:00 20.3 3 Nordeste 17 Nordeste 0 819.8 -- 39
2020-06-20 17:00:00 21.1 10 Norte 26 Norte 0 819.7 -- 35
2020-06-20 16:00:00 19.4 5 Norte 23 Noroeste 0 819.9 -- 41
2020-06-20 15:00:00 20.6 6 Oeste 23 Noroeste 0 820 -- 40
2020-06-20 14:00:00 20 5 Este 20 Oeste 0 819.9 -- 43
2020-06-20 13:00:00 18.4 3 Oeste 18 Noroeste 0 819.9 -- 43
2020-06-20 12:00:00 17.6 8 Noroeste 21 Oeste 0 819.7 -- 46
2020-06-20 11:00:00 16.5 8 Oeste 19 Sudoeste 0 819.3 -- 46
2020-06-20 10:00:00 15.4 9 Sur 20 Sur 0 819 -- 49
2020-06-20 09:00:00 14.4 7 Sur 16 Sur 0 818.7 -- 49
2020-06-20 08:00:00 12.3 3 Sudoeste 10 Oeste 0 818.3 -- 52
2020-06-20 07:00:00 10.5 8 Noroeste 18 Sudoeste 0 818.1 -- 56
2020-06-20 06:00:00 10.3 4 Oeste 6 Oeste 0 818 -- 56
2020-06-20 05:00:00 10.5 4 Noroeste 10 Oeste 0 818 -- 55
2020-06-20 04:00:00 10.5 4 Noroeste 8 Noroeste 0 818.2 -- 55
2020-06-20 03:00:00 10.6 6 Noroeste 16 Noroeste 0 818.5 -- 56
2020-06-20 02:00:00 11 9 Noroeste 21 Noroeste 0 818.7 -- 55
2020-06-20 01:00:00 11.4 8 Noroeste 18 Noroeste 0 818.7 -- 45
2020-06-20 00:00:00 12.2 10 Noroeste 21 Noroeste 0 818.6 -- 44
2020-06-19 23:00:00 12.9 10 Norte 23 Noroeste 0 818.2 -- 42
2020-06-19 22:00:00 13.9 9 Norte 18 Noroeste 0 817.6 -- 41
2020-06-19 21:00:00 15.5 8 Noroeste 25 Noroeste 0 817.2 -- 39
2020-06-19 20:00:00 17.2 9 Noroeste 31 Noroeste 0 816.7 -- 35
2020-06-19 19:00:00 18.3 9 Noroeste 24 Noroeste 0 816.5 -- 41
2020-06-19 18:00:00 18.4 9 Noroeste 30 Oeste 0 816.5 -- 43
2020-06-19 17:00:00 18 7 Oeste 23 Noroeste 0 816.5 -- 44
2020-06-19 16:00:00 18.6 11 Oeste 26 Oeste 0 816.4 -- 41
2020-06-19 15:00:00 17.4 7 Sudoeste 22 Sur 0 816.1 -- 51
2020-06-19 14:00:00 16.1 9 Oeste 19 Oeste 0 816.1 -- 48
2020-06-19 13:00:00 16.5 5 Noroeste 23 Sudoeste 0 816 -- 56
2020-06-19 12:00:00 15.9 10 Sur 29 Sur 0 815.6 -- 56
2020-06-19 11:00:00 14.3 15 Sudoeste 28 Sudoeste 0 815.2 -- 61
2020-06-19 10:00:00 13.1 12 Sur 24 Sur 0 815 -- 62
2020-06-19 09:00:00 11.9 11 Sur 19 Sur 0 814.6 -- 66
2020-06-19 08:00:00 10.7 8 Sur 13 Sur 0 814.4 -- 70
2020-06-19 07:00:00 8.2 2 Oeste 4 Noroeste 0 814 -- 63
2020-06-19 06:00:00 7.9 2 Oeste 6 Noroeste 0 813.7 -- 67
2020-06-19 05:00:00 7.6 5 Nordeste 17 Norte 0 813.5 -- 72
2020-06-19 04:00:00 8.8 8 Norte 16 Norte 0 813.4 -- 69
2020-06-19 03:00:00 9.5 9 Noroeste 11 Oeste 0 813.5 -- 64
2020-06-19 02:00:00 9.9 4 Noroeste 12 Norte 0 813.7 -- 65
2020-06-19 01:00:00 10 11 Norte 13 Norte 0 814 -- 64
2020-06-19 00:00:00 10.3 9 Norte 16 Norte 0 814 -- 68
2020-06-18 23:00:00 10.8 13 Norte 17 Norte 0 813.8 -- 68
2020-06-18 22:00:00 11.5 12 Norte 18 Norte 0 813.2 -- 65
2020-06-18 21:00:00 12.7 9 Noroeste 22 Noroeste 0 812.8 -- 61
2020-06-18 20:00:00 14.5 9 Norte 26 Noroeste 0 812.3 -- 56
2020-06-18 19:00:00 16.2 8 Noroeste 22 Noroeste 0 812 -- 52
2020-06-18 18:00:00 14.7 5 Norte 18 Nordeste 0 812 -- 56
2020-06-18 17:00:00 14.7 4 Norte 16 Noroeste 0 812.1 -- 55
2020-06-18 16:00:00 16.7 3 Este 14 Sur 0 812 -- 52
2020-06-18 15:00:00 14.6 6 Norte 18 Noroeste 0 812.1 -- 57
2020-06-18 14:00:00 14.1 3 Sudoeste 14 Oeste 0 812.1 -- 59
2020-06-18 13:00:00 13.2 3 Norte 15 Noroeste 0 811.9 -- 64
2020-06-18 12:00:00 12.6 5 Noroeste 21 Oeste 0 811.7 -- 65
2020-06-18 11:00:00 12.6 10 Oeste 27 Sur 0 811.4 -- 60
2020-06-18 10:00:00 12.2 10 Sur 22 Sur 0 811.2 -- 60
2020-06-18 09:00:00 9.7 2 Norte 7 Norte 0 810.9 -- 70
2020-06-18 08:00:00 7.9 5 Norte 7 Norte 0 810.7 -- 76
2020-06-18 07:00:00 6 4 Nordeste 9 Noroeste 0 810.5 -- 81
2020-06-18 06:00:00 6 3 Norte 9 Nordeste 0 810.4 -- 78
2020-06-18 05:00:00 7.1 6 Nordeste 9 Noroeste 0 810.4 -- 72
2020-06-18 04:00:00 7.8 8 Oeste 11 Oeste 0 810.9 -- 70
2020-06-18 03:00:00 8.5 6 Oeste 13 Noroeste 0 811.3 -- 67
2020-06-18 02:00:00 8.5 3 Oeste 13 Oeste 0 811.7 -- 65
2020-06-18 01:00:00 8.6 9 Oeste 16 Oeste 0 812 -- 66
2020-06-18 00:00:00 8.8 3 Oeste 9 Oeste 0 812.3 -- 65
2020-06-17 23:00:00 8.8 5 Noroeste 14 Norte 0 812.3 -- 65
2020-06-17 22:00:00 9 9 Norte 17 Noroeste 0 811.9 -- 65
2020-06-17 21:00:00 11.1 9 Noroeste 21 Noroeste 0 811.8 -- 59
2020-06-17 20:00:00 12.1 6 Norte 18 Noroeste 0 811.7 -- 57
2020-06-17 19:00:00 13.8 6 Noroeste 23 Noroeste 0 811.9 -- 51
2020-06-17 18:00:00 13.2 5 Nordeste 12 Este 0 812.3 -- 54
2020-06-17 17:00:00 11.8 6 Noroeste 14 Noroeste 0 812.5 -- 59
2020-06-17 16:00:00 11.5 9 Norte 21 Noroeste 0 812.6 -- 59
2020-06-17 15:00:00 12.5 9 Noroeste 24 Norte 0 812.7 -- 59
2020-06-17 14:00:00 10.6 6 Noroeste 18 Noroeste 0 812.9 -- 72
2020-06-17 13:00:00 10.1 9 Oeste 24 Noroeste 0 813 -- 74
2020-06-17 12:00:00 9.2 7 Noroeste 17 Noroeste 0 812.8 -- 76
2020-06-17 11:00:00 8.7 8 Noroeste 19 Noroeste 0 812.7 -- 73
2020-06-17 10:00:00 9.4 4 Norte 12 Nordeste 0 812.6 -- 73
2020-06-17 09:00:00 8.6 3 Este 12 Nordeste 0 812.5 -- 81
2020-06-17 08:00:00 6.6 5 Este 11 Este 0 812.4 -- 88
2020-06-17 07:00:00 4.1 8 Nordeste 13 Nordeste 0 812.3 -- 94
2020-06-17 06:00:00 4 10 Nordeste 18 Nordeste 0 812.3 -- 95
2020-06-17 05:00:00 4.2 9 Norte 23 Noroeste 0 812.3 -- 94
2020-06-17 04:00:00 4.4 13 Norte 24 Norte 0 812.7 -- 96
2020-06-17 03:00:00 4.7 15 Norte 26 Norte 0 813.3 -- 98
2020-06-17 02:00:00 5.2 14 Norte 30 Noroeste 0 813.9 -- 95
2020-06-17 01:00:00 6.4 14 Noroeste 39 Norte 0 814.4 -- 91
2020-06-17 00:00:00 7.3 14 Noroeste 36 Noroeste 0 814.8 -- 83
2020-06-16 23:00:00 8.1 13 Noroeste 39 Noroeste 0 815 -- 79
2020-06-16 22:00:00 8.8 12 Noroeste 35 Noroeste 0 814.5 -- 77
2020-06-16 21:00:00 9.4 13 Noroeste 46 Oeste 0 814.3 -- 77
2020-06-16 20:00:00 10.8 12 Noroeste 38 Noroeste 0 814.1 -- 67
2020-06-16 19:00:00 12.3 12 Noroeste 38 Oeste 0 814 -- 65
2020-06-16 18:00:00 12.3 10 Oeste 37 Noroeste 0 814.4 -- 69
2020-06-16 17:00:00 10.9 12 Noroeste 43 Noroeste 0 814.8 -- 74
2020-06-16 16:00:00 11.5 9 Noroeste 27 Noroeste 0 814.9 -- 66
2020-06-16 15:00:00 10.6 8 Noroeste 33 Norte 0 815.2 -- 68
2020-06-16 14:00:00 10.8 14 Noroeste 35 Noroeste 0 815.3 -- 66
2020-06-16 13:00:00 10.7 12 Norte 31 Noroeste 0 815.4 -- 73
2020-06-16 12:00:00 10.5 11 Noroeste 23 Noroeste 0 815.4 -- 70
2020-06-16 11:00:00 7.7 7 Norte 16 Oeste 0 815.3 -- 89
2020-06-16 10:00:00 5.5 9 Norte 23 Noroeste 0 815.3 -- 100
2020-06-16 09:00:00 5.4 8 Norte 15 Norte 0 815.1 -- 100
2020-06-16 08:00:00 5.6 6 Norte 18 Noroeste 0 815 -- 96
2020-06-16 07:00:00 5 5 Norte 13 Noroeste 0 815 -- 100
2020-06-16 06:00:00 5 5 Noroeste 17 Noroeste 0 815.2 -- 100
2020-06-16 05:00:00 5.7 6 Noroeste 15 Oeste 0 815.3 -- 98
2020-06-16 04:00:00 5.4 8 Norte 16 Norte 0 815.5 -- 100
2020-06-16 03:00:00 5.8 7 Norte 14 Norte 0 816.2 -- 99
2020-06-16 02:00:00 6.5 8 Norte 19 Norte 0 816.8 -- 96
2020-06-16 01:00:00 7.1 7 Norte 17 Nordeste 0 817.1 -- 94
2020-06-16 00:00:00 7.6 7 Nordeste 22 Noroeste 0 817.3 -- 91
2020-06-15 23:00:00 8.4 11 Norte 24 Noroeste 0 817.5 -- 84
2020-06-15 22:00:00 9.9 10 Norte 26 Noroeste 0 817.2 -- 76
2020-06-15 21:00:00 11.3 9 Noroeste 28 Noroeste 0 817.1 -- 73
2020-06-15 20:00:00 13.4 12 Noroeste 30 Noroeste 0 816.9 -- 62
2020-06-15 19:00:00 13.8 10 Noroeste 23 Oeste 0 817 -- 59
2020-06-15 18:00:00 14.5 8 Noroeste 27 Noroeste 0 817.2 -- 58
2020-06-15 17:00:00 15.1 8 Noroeste 22 Noroeste 0 817.2 -- 62
2020-06-15 16:00:00 14.9 8 Noroeste 19 Oeste 0 817.4 -- 65
2020-06-15 15:00:00 12.9 5 Noroeste 18 Noroeste 0 817.5 -- 76
2020-06-15 14:00:00 12.5 3 Nordeste 18 Noroeste 0 817.7 -- 77
2020-06-15 13:00:00 11.8 4 Noroeste 15 Noroeste 0 817.5 -- 79
2020-06-15 12:00:00 10.6 6 Noroeste 14 Noroeste 0 817.3 -- 84
2020-06-15 11:00:00 10.7 3 Noroeste 13 Noroeste 0 817.1 -- 83
2020-06-15 10:00:00 10.4 8 Sudoeste 18 Sudoeste 0 816.9 -- 78
2020-06-15 09:00:00 8.4 8 Sur 22 Sudoeste 0 816.6 -- 84
2020-06-15 08:00:00 7 13 Sur 22 Sur 0 816.5 -- 91
2020-06-15 07:00:00 5.8 3 Oeste 13 Sur 0 816.4 -- 95
2020-06-15 06:00:00 6.6 5 Sudoeste 20 Sur 0 816.2 -- 90
2020-06-15 05:00:00 6.2 12 Sur 17 Sur 0 816.1 -- 93
2020-06-15 04:00:00 5.9 2 Norte 8 Noroeste 0 816.4 -- 92
2020-06-15 03:00:00 6.2 6 Noroeste 9 Noroeste 0 816.9 -- 91
2020-06-15 02:00:00 6.2 5 Norte 14 Noroeste 0 817.2 -- 90
2020-06-15 01:00:00 6.7 7 Noroeste 20 Norte 0 817.5 -- 88
2020-06-15 00:00:00 7.1 15 Norte 20 Norte 0 817.4 -- 84
2020-06-14 23:00:00 7.8 10 Nordeste 28 Noroeste 0 817.3 -- 81
2020-06-14 22:00:00 9.1 12 Noroeste 28 Norte 0 816.8 -- 71
2020-06-14 21:00:00 10.7 12 Norte 30 Noroeste 0 816.6 -- 67
2020-06-14 20:00:00 12.7 8 Noroeste 25 Noroeste 0 816.3 -- 57
2020-06-14 19:00:00 13.8 10 Noroeste 31 Noroeste 0 815.9 -- 55
2020-06-14 18:00:00 14.2 10 Noroeste 27 Oeste 0 815.9 -- 52
2020-06-14 17:00:00 13.5 12 Noroeste 31 Noroeste 0 815.9 -- 55
2020-06-14 16:00:00 13.3 8 Noroeste 23 Noroeste 0 815.8 -- 61
2020-06-14 15:00:00 13.1 5 Noroeste 23 Noroeste 0 815.9 -- 63
2020-06-14 14:00:00 11.9 6 Norte 18 Noroeste 0 816 -- 65
2020-06-14 13:00:00 11.5 8 Oeste 26 Sudoeste 0 815.8 -- 70
2020-06-14 12:00:00 10 7 Sudoeste 21 Sudoeste 0 815.4 -- 76
2020-06-14 11:00:00 8.4 10 Sur 25 Sudoeste 0 815.2 -- 80
2020-06-14 10:00:00 7.9 14 Sur 27 Sur 0 814.8 -- 84
2020-06-14 09:00:00 6.1 12 Sur 19 Sur 0 814.5 -- 94
2020-06-14 08:00:00 5.2 6 Sur 10 Sur 0 814 -- 95
2020-06-14 07:00:00 4.4 2 Noroeste 8 Noroeste 0 813.9 -- 99
2020-06-14 06:00:00 4.5 3 Noroeste 10 Norte 0 813.8 -- 100
2020-06-14 05:00:00 4.8 6 Norte 15 Noroeste 0 813.7 -- 100
2020-06-14 04:00:00 5.3 4 Noroeste 14 Norte 0 813.8 -- 98
2020-06-14 03:00:00 5.2 8 Norte 13 Norte 0 814 -- 97
2020-06-14 02:00:00 5.4 8 Norte 16 Noroeste 0 814.1 -- 98
2020-06-14 01:00:00 5.5 8 Norte 18 Noroeste 0 814.2 -- 98
2020-06-14 00:00:00 6.1 8 Noroeste 17 Norte 0 814.4 -- 90
2020-06-13 23:00:00 6.4 12 Norte 25 Norte 0 814 -- 87
2020-06-13 22:00:00 6.8 10 Norte 17 Norte 0 813.6 -- 85
2020-06-13 21:00:00 8.5 5 Noroeste 17 Noroeste 0 813.3 -- 74
2020-06-13 20:00:00 9.3 6 Noroeste 17 Noroeste 0 812.9 -- 68
2020-06-13 19:00:00 10.7 7 Noroeste 19 Noroeste 0 812.7 -- 61
2020-06-13 18:00:00 12 8 Noroeste 23 Noroeste 0 812.5 -- 60
2020-06-13 17:00:00 11.5 9 Noroeste 23 Oeste 0 812.4 -- 61
2020-06-13 16:00:00 9.9 6 Noroeste 21 Norte 0 812.1 -- 67
2020-06-13 15:00:00 9.6 9 Noroeste 25 Noroeste 0 812.1 -- 70
2020-06-13 14:00:00 8.9 6 Noroeste 21 Oeste 0 811.9 -- 70
2020-06-13 13:00:00 8.3 10 Noroeste 22 Norte 0 811.5 -- 76
2020-06-13 12:00:00 6.4 8 Noroeste 26 Norte 0 811 -- 88
2020-06-13 11:00:00 4.3 12 Norte 28 Norte 0 810.5 -- 97
2020-06-13 10:00:00 2.6 13 Noroeste 29 Norte 0 809.8 -- 100
2020-06-13 09:00:00 2.3 12 Norte 30 Noroeste 0 809.3 -- 100
2020-06-13 08:00:00 1.9 12 Noroeste 33 Noroeste 0 808.8 -- 100
2020-06-13 07:00:00 2.1 12 Norte 39 Noroeste 0 807.9 -- 100
2020-06-13 06:00:00 2.3 14 Norte 38 Noroeste 0 807.2 -- 100
2020-06-13 05:00:00 2.5 9 Noroeste 32 Noroeste 0 806.9 -- 100
2020-06-13 04:00:00 2.6 13 Noroeste 38 Oeste 0 806.9 -- 100
2020-06-13 03:00:00 2.8 14 Noroeste 35 Noroeste 0 806.8 -- 100
2020-06-13 02:00:00 3 12 Oeste 37 Oeste 0 806.8 -- 100
2020-06-13 01:00:00 3.2 16 Oeste 36 Oeste 0.8 806.8 -- 100
2020-06-13 00:00:00 3.2 10 Noroeste 39 Noroeste 0 806.6 -- 100
2020-06-12 23:00:00 3.1 11 Oeste 49 Oeste 0.2 806.2 -- 100
2020-06-12 22:00:00 3.1 15 Oeste 40 Oeste 0 805.5 -- 100
2020-06-12 21:00:00 2.9 15 Oeste 47 Oeste 0.2 805 -- 99
2020-06-12 20:00:00 3.4 18 Oeste 48 Oeste 2.6 804.8 -- 100
2020-06-12 19:00:00 3.2 24 Oeste 55 Oeste 9 804.3 -- 100
2020-06-12 18:00:00 6.4 15 Sudoeste 32 Sudoeste 1.6 803.8 -- 98
2020-06-12 17:00:00 6.7 9 Oeste 42 Oeste 0.6 803.6 -- 94
2020-06-12 16:00:00 5.8 17 Sudoeste 49 Oeste 0.8 803.6 -- 93
2020-06-12 15:00:00 5.7 19 Oeste 49 Oeste 0.6 803.4 -- 100
2020-06-12 14:00:00 5.6 18 Oeste 41 Oeste 0 803.2 -- 84
2020-06-12 13:00:00 4.7 23 Oeste 47 Sudoeste 0 802.8 -- 87
2020-06-12 12:00:00 3.6 18 Oeste 47 Oeste 0 802.7 -- 97
2020-06-12 11:00:00 3.2 17 Oeste 48 Oeste 0 802.3 -- 96
2020-06-12 10:00:00 2.2 12 Oeste 41 Oeste 0 802 -- 100
2020-06-12 09:00:00 1.6 8 Oeste 39 Noroeste 0 801.8 -- 100
2020-06-12 08:00:00 1.2 12 Noroeste 30 Noroeste 0 801.4 -- 100
2020-06-12 07:00:00 0.8 9 Noroeste 40 Noroeste 0 801.4 -- 100
2020-06-12 06:00:00 0.5 15 Norte 37 Norte 0 801.3 -- 100
2020-06-12 05:00:00 0.1 18 Norte 36 Norte 0 801 -- 100
2020-06-12 04:00:00 0.7 13 Norte 44 Norte 0 801.3 -- 100
2020-06-12 03:00:00 1.1 9 Noroeste 40 Noroeste 0 801.8 -- 99
2020-06-12 02:00:00 1.7 14 Noroeste 44 Noroeste 0 802.3 -- 98
2020-06-12 01:00:00 2.5 12 Noroeste 38 Noroeste 0 802.7 -- 98
2020-06-12 00:00:00 3.4 14 Noroeste 40 Noroeste 0 802.9 -- 95
2020-06-11 23:00:00 4.8 12 Noroeste 45 Noroeste 0 803 -- 93
2020-06-11 22:00:00 5.5 15 Noroeste 43 Noroeste 0 802.8 -- 92
2020-06-11 21:00:00 6.5 14 Oeste 36 Oeste 0.8 802.8 -- 94
2020-06-11 20:00:00 7.6 13 Noroeste 44 Oeste 0.8 803 -- 94
2020-06-11 19:00:00 9.6 11 Oeste 50 Oeste 0 803.4 -- 73
2020-06-11 18:00:00 13.3 19 Oeste 42 Sudoeste 0 803.7 -- 55
2020-06-11 17:00:00 10.4 19 Oeste 44 Oeste 0 804.1 -- 66
2020-06-11 16:00:00 10.2 14 Oeste 38 Sudoeste 0 804.5 -- 70
2020-06-11 15:00:00 9.1 15 Oeste 43 Oeste 0 805.1 -- 74
2020-06-11 14:00:00 7.8 6 Noroeste 23 Oeste 0 805.6 -- 88
2020-06-11 13:00:00 8.1 7 Noroeste 19 Noroeste 0 805.8 -- 83
2020-06-11 12:00:00 10.2 7 Noroeste 27 Noroeste 0 805.8 -- 69
2020-06-11 11:00:00 9 8 Noroeste 24 Norte 0 806.1 -- 76
2020-06-11 10:00:00 7.9 9 Noroeste 27 Norte 0 806.5 -- 88
2020-06-11 09:00:00 6.1 9 Norte 27 Norte 0 806.8 -- 99
2020-06-11 08:00:00 5.5 12 Norte 21 Norte 0 806.9 -- 100
2020-06-11 07:00:00 6 5 Nordeste 11 Norte 0 807.5 -- 98
2020-06-11 06:00:00 6.1 7 Norte 17 Noroeste 0 807.8 -- 94
2020-06-11 05:00:00 6.3 7 Noroeste 22 Noroeste 0 808.7 -- 93
2020-06-11 04:00:00 7.1 13 Noroeste 31 Noroeste 0 809.3 -- 87
2020-06-11 03:00:00 7.8 9 Noroeste 29 Noroeste 0 809.9 -- 86
2020-06-11 02:00:00 8.4 10 Noroeste 31 Noroeste 0 810.5 -- 69
2020-06-11 01:00:00 9.2 13 Oeste 26 Oeste 0 810.8 -- 60
2020-06-11 00:00:00 10 12 Oeste 34 Oeste 0 811 -- 58